Beatriz Paulo — CULC6 — position and weather

sailwx.info

Track history (hours):
 
Tides and Currents Weather Stations Pressure Air Temp Water Temp Dewpoint Dewpoint Depression Visibility Wind Speed Wind Dir Waves Ship Positions

Beatriz Paulo

Last reported at 2018-Jun-21 08:31 UTC. Time now 2018-Jun-21 08:45 UTC.
Position N 38°26' W 009°07'.

Length 22 m.

Type: Fishing. MMSI: 263500236.

Date/timePositionNaut miles runAvg speedWind from/ knotsBaromVisibWave heightAir tempDewpointWater temp
2018-Jun-21 08:31N 38°26' W 009°07'4 9.0
2018-Jun-21 08:00N 38°24' W 009°12'4 7.5
2018-Jun-21 07:30N 38°28' W 009°14'2 3.2
2018-Jun-21 07:00N 38°29' W 009°14'0 0.4
2018-Jun-21 06:30N 38°29' W 009°14'0 0.3
2018-Jun-21 05:57N 38°29' W 009°14'0 0.1
2018-Jun-21 05:30N 38°29' W 009°14'1 1.7
2018-Jun-21 04:59N 38°29' W 009°13'0 0.6
2018-Jun-21 04:30N 38°30' W 009°13'4 6.9
2018-Jun-21 03:59N 38°33' W 009°13'3 7.3
2018-Jun-21 03:31N 38°36' W 009°15'0 0.4
2018-Jun-21 03:00N 38°36' W 009°16'0 0.3
2018-Jun-21 02:29N 38°36' W 009°16'0 0.4
2018-Jun-21 02:00N 38°36' W 009°16'0 0.4
2018-Jun-21 01:30N 38°36' W 009°16'1 2.0
2018-Jun-21 01:00N 38°37' W 009°16'1 1.3
2018-Jun-21 00:30N 38°36' W 009°15'2 3.6
2018-Jun-21 00:00N 38°35' W 009°14'0 0.4
2018-Jun-20 23:30N 38°35' W 009°14'0 0.4
2018-Jun-20 23:00N 38°34' W 009°14'3 5.2
2018-Jun-20 22:30N 38°32' W 009°14'3 6.7
2018-Jun-20 22:00N 38°29' W 009°13'4 8.0
2018-Jun-20 21:29N 38°24' W 009°13'4 8.9
2018-Jun-20 21:00N 38°26' W 009°07'1 1.6
2018-Jun-20 20:30N 38°26' W 009°07'0 0.0
2018-Jun-20 10:23N 38°26' W 009°07'0 0.4
2018-Jun-20 10:00N 38°26' W 009°07'0 0.0
2018-Jun-20 09:30N 38°26' W 009°07'0 0.0
2018-Jun-20 09:00N 38°26' W 009°07'0 0.0
2018-Jun-20 08:30N 38°26' W 009°07'3 6.7
2018-Jun-20 08:00N 38°25' W 009°10'3 6.3
2018-Jun-20 07:28N 38°27' W 009°14'4 8.9
2018-Jun-20 06:59N 38°31' W 009°14'1 3.1
2018-Jun-20 06:30N 38°33' W 009°14'0 0.3
2018-Jun-20 06:00N 38°33' W 009°14'0 0.2
2018-Jun-20 05:30N 38°33' W 009°14'0 0.1
2018-Jun-20 05:00N 38°33' W 009°14'0 0.2
2018-Jun-20 04:29N 38°33' W 009°14'1 1.1
2018-Jun-20 04:00N 38°33' W 009°14'0 0.6
2018-Jun-20 03:30N 38°33' W 009°14'0 0.1
2018-Jun-20 03:00N 38°33' W 009°14'0 0.0
2018-Jun-20 02:30N 38°33' W 009°14'1 2.7
2018-Jun-20 02:00N 38°32' W 009°14'0 0.1
2018-Jun-20 01:29N 38°32' W 009°14'0 0.1
2018-Jun-20 01:00N 38°32' W 009°14'0 0.1
2018-Jun-20 00:30N 38°32' W 009°14'0 0.3
2018-Jun-20 00:00N 38°32' W 009°14'0 0.2
2018-Jun-19 23:30N 38°32' W 009°14'0 0.2
2018-Jun-19 23:00N 38°32' W 009°14'1 2.6
2018-Jun-19 22:30N 38°34' W 009°15'4 8.1
2018-Jun-19 21:58N 38°29' W 009°13'4 8.6
2018-Jun-19 21:29N 38°25' W 009°14'4 7.6
2018-Jun-19 20:57N 38°25' W 009°08'2 3.4
2018-Jun-19 20:29N 38°26' W 009°07'0 0.0
2018-Jun-19 10:30N 38°26' W 009°07'0 0.2
2018-Jun-19 10:00N 38°26' W 009°07'0 0.0
2018-Jun-19 09:30N 38°26' W 009°07'0 0.0
2018-Jun-19 09:00N 38°26' W 009°07'0 0.1
2018-Jun-19 08:25N 38°26' W 009°07'5 7.8
2018-Jun-19 07:49N 38°24' W 009°12'2 6.9
2018-Jun-19 07:29N 38°27' W 009°13'2 4.2
2018-Jun-19 06:58N 38°29' W 009°13'0 0.2
2018-Jun-19 06:28N 38°29' W 009°13'0 0.1
2018-Jun-19 06:00N 38°29' W 009°13'0 0.1
2018-Jun-19 05:26N 38°29' W 009°13'0 0.1
2018-Jun-19 05:00N 38°29' W 009°13'3 4.9
2018-Jun-19 04:30N 38°31' W 009°13'3 6.5
2018-Jun-19 04:00N 38°34' W 009°14'1 2.1
2018-Jun-19 03:31N 38°35' W 009°14'0 0.2
2018-Jun-19 03:00N 38°35' W 009°14'0 0.3
2018-Jun-19 02:28N 38°35' W 009°14'0 0.2
2018-Jun-19 02:00N 38°35' W 009°14'0 0.3
2018-Jun-19 01:30N 38°35' W 009°14'0 0.2
2018-Jun-19 01:00N 38°35' W 009°14'0 0.2
2018-Jun-19 00:30N 38°35' W 009°14'0 0.2
2018-Jun-18 23:59N 38°35' W 009°14'0 0.1
2018-Jun-18 23:29N 38°35' W 009°14'0 0.2
2018-Jun-18 23:00N 38°35' W 009°14'1 2.8
2018-Jun-18 22:31N 38°33' W 009°13'3 5.4
2018-Jun-18 22:00N 38°31' W 009°13'4 8.4
2018-Jun-18 21:30N 38°26' W 009°14'3 6.8
2018-Jun-18 21:00N 38°25' W 009°10'3 5.8
2018-Jun-18 20:30N 38°26' W 009°07'0 0.0
2018-Jun-18 19:57N 38°26' W 009°07'0 0.0
2018-Jun-18 12:38N 38°26' W 009°07'0 1.0
2018-Jun-18 12:29N 38°26' W 009°07'0 0.0
2018-Jun-18 12:00N 38°26' W 009°07'0 0.0
2018-Jun-18 11:29N 38°26' W 009°07'0 0.0
2018-Jun-18 11:00N 38°26' W 009°07'0 0.0
2018-Jun-18 10:30N 38°26' W 009°07'0 0.0
2018-Jun-18 10:00N 38°26' W 009°07'0 0.0
2018-Jun-18 09:31N 38°26' W 009°07'0 0.0
2018-Jun-18 09:00N 38°26' W 009°07'3 7.0
2018-Jun-18 08:31N 38°25' W 009°11'3 5.8
2018-Jun-18 08:00N 38°27' W 009°14'5 9.0
2018-Jun-18 07:30N 38°31' W 009°14'1 2.6
2018-Jun-18 07:00N 38°33' W 009°14'0 0.3
2018-Jun-18 06:30N 38°33' W 009°14'0 0.2
2018-Jun-18 06:00N 38°33' W 009°14'0 0.2
2018-Jun-18 05:30N 38°32' W 009°14'1 3.0
2018-Jun-18 05:01N 38°34' W 009°15'4 8.1
2018-Jun-18 04:30N 38°35' W 009°20'4 8.5
2018-Jun-18 04:00N 38°38' W 009°24'4 7.7
2018-Jun-18 03:30N 38°41' W 009°27'0 0.9
2018-Jun-18 03:01N 38°41' W 009°27'1 2.8
2018-Jun-18 02:31N 38°40' W 009°25'0 0.3
2018-Jun-18 02:00N 38°41' W 009°25'0 0.6
2018-Jun-18 01:30N 38°40' W 009°25'0 0.3
2018-Jun-18 01:00N 38°40' W 009°25'0 0.2
2018-Jun-18 00:31N 38°40' W 009°25'2 3.2
2018-Jun-18 00:00N 38°41' W 009°27'3 5.5
2018-Jun-17 23:30N 38°39' W 009°24'4 8.5
2018-Jun-17 23:00N 38°35' W 009°22'4 7.9
2018-Jun-17 22:30N 38°34' W 009°17'4 8.3
2018-Jun-17 22:01N 38°30' W 009°14'4 8.7
2018-Jun-17 21:30N 38°26' W 009°14'3 6.8
2018-Jun-17 21:00N 38°25' W 009°10'3 5.4
2018-Jun-17 20:31N 38°26' W 009°07'0 0.0
2018-Jun-17 20:00N 38°26' W 009°07'  
2018-Jun-15 11:44N 38°26' W 009°07'0 0.0
2018-Jun-15 11:30N 38°26' W 009°07'1 2.4
2018-Jun-15 11:00N 38°25' W 009°08'4 8.6
2018-Jun-15 10:30N 38°25' W 009°13'4 6.1
2018-Jun-15 09:52N 38°28' W 009°15'0 0.2
2018-Jun-15 09:30N 38°28' W 009°15'0 0.2
2018-Jun-15 09:00N 38°28' W 009°15'2 4.1
2018-Jun-15 08:30N 38°30' W 009°14'3 6.1
2018-Jun-15 07:58N 38°33' W 009°14'3 5.7
2018-Jun-15 07:29N 38°34' W 009°18'0 0.4
2018-Jun-15 07:00N 38°34' W 009°18'0 0.0
2018-Jun-15 06:30N 38°34' W 009°18'1 2.2
2018-Jun-15 05:59N 38°34' W 009°16'3 6.5
2018-Jun-15 05:29N 38°37' W 009°16'3 6.4
2018-Jun-15 05:00N 38°34' W 009°14'0 0.6
2018-Jun-15 04:29N 38°34' W 009°14'1 1.0
2018-Jun-15 03:58N 38°35' W 009°15'0 1.0
2018-Jun-15 03:30N 38°34' W 009°14'1 2.3
2018-Jun-15 03:00N 38°35' W 009°15'0 0.3
2018-Jun-15 02:29N 38°36' W 009°15'0 0.3
2018-Jun-15 02:00N 38°36' W 009°15'0 0.1
2018-Jun-15 01:30N 38°36' W 009°15'0 0.1
2018-Jun-15 00:58N 38°36' W 009°15'0 0.3
2018-Jun-15 00:30N 38°36' W 009°15'0 0.2
2018-Jun-14 23:59N 38°36' W 009°15'0 0.1
2018-Jun-14 23:30N 38°36' W 009°15'0 0.1
2018-Jun-14 23:00N 38°36' W 009°15'1 2.9
2018-Jun-14 22:29N 38°36' W 009°17'2 5.0
2018-Jun-14 22:00N 38°35' W 009°20'1 2.1
2018-Jun-14 21:30N 38°34' W 009°20'1 2.0
2018-Jun-14 21:00N 38°34' W 009°19'4 7.9
2018-Jun-14 20:28N 38°30' W 009°16'4 8.3
2018-Jun-14 20:00N 38°27' W 009°15'4 7.3
2018-Jun-14 19:30N 38°25' W 009°11'4 7.5
2018-Jun-14 19:00N 38°26' W 009°07'0 0.0
2018-Jun-14 10:36N 38°26' W 009°07'0 2.0
2018-Jun-14 10:30N 38°26' W 009°07'4 8.8
2018-Jun-14 10:00N 38°24' W 009°02'4 8.8
2018-Jun-14 09:30N 38°21' W 008°57'5 8.9
2018-Jun-14 08:58N 38°18' W 008°53'4 8.8
2018-Jun-14 08:30N 38°16' W 008°49'1 2.0
2018-Jun-14 08:00N 38°17' W 008°49'2 4.9
2018-Jun-14 07:30N 38°18' W 008°51'3 6.3
2018-Jun-14 06:58N 38°22' W 008°52'1 2.9
2018-Jun-14 06:28N 38°23' W 008°53'2 4.1
2018-Jun-14 06:00N 38°24' W 008°55'1 1.3
2018-Jun-14 05:30N 38°25' W 008°55'0 0.5
2018-Jun-14 04:57N 38°25' W 008°55'0 0.2
2018-Jun-14 04:29N 38°25' W 008°55'0 0.2
2018-Jun-14 03:59N 38°25' W 008°55'1 2.0
2018-Jun-14 03:29N 38°24' W 008°54'2 3.4
2018-Jun-14 03:00N 38°25' W 008°56'4 8.8
2018-Jun-14 02:30N 38°26' W 009°01'4 8.7
2018-Jun-14 02:00N 38°25' W 009°07'4 8.8
2018-Jun-14 01:30N 38°24' W 009°12'5 7.9
2018-Jun-14 00:55N 38°29' W 009°13'1 1.4
2018-Jun-14 00:30N 38°29' W 009°13'0 0.1
2018-Jun-13 23:58N 38°29' W 009°13'0 0.2
2018-Jun-13 23:29N 38°30' W 009°13'3 5.5
2018-Jun-13 23:00N 38°32' W 009°13'4 8.7
2018-Jun-13 22:30N 38°36' W 009°16'3 5.6
2018-Jun-13 21:59N 38°34' W 009°19'2 4.2
2018-Jun-13 21:30N 38°35' W 009°21'2 4.0
2018-Jun-13 21:00N 38°34' W 009°19'4 7.3
2018-Jun-13 20:29N 38°34' W 009°14'4 8.1
2018-Jun-13 20:00N 38°30' W 009°13'1 2.9
2018-Jun-13 19:30N 38°29' W 009°13'4 8.0
2018-Jun-13 19:00N 38°25' W 009°14'4 8.1
2018-Jun-13 18:30N 38°25' W 009°08'2 3.3
2018-Jun-13 17:59N 38°26' W 009°07'0 0.0
2018-Jun-13 11:27N 38°26' W 009°07'0 0.1
2018-Jun-13 11:00N 38°26' W 009°07'0 0.0
2018-Jun-13 10:30N 38°26' W 009°07'0 0.0
2018-Jun-13 10:00N 38°26' W 009°07'1 1.3
2018-Jun-13 09:30N 38°26' W 009°07'4 8.9
2018-Jun-13 09:00N 38°25' W 009°13'4 8.3
2018-Jun-13 08:30N 38°29' W 009°14'3 6.6
2018-Jun-13 08:00N 38°32' W 009°14'0 0.7
2018-Jun-13 07:29N 38°32' W 009°14'0 0.5
2018-Jun-13 07:00N 38°32' W 009°14'0 0.2
2018-Jun-13 06:30N 38°33' W 009°14'1 1.7
2018-Jun-13 05:58N 38°33' W 009°14'1 2.0
2018-Jun-13 05:30N 38°34' W 009°14'0 0.4
2018-Jun-13 04:58N 38°34' W 009°14'0 0.3
2018-Jun-13 04:30N 38°34' W 009°14'0 0.3
2018-Jun-13 03:59N 38°35' W 009°14'0 0.8
2018-Jun-13 03:30N 38°34' W 009°14'2 4.1
2018-Jun-13 03:00N 38°32' W 009°14'0 0.5
2018-Jun-13 02:30N 38°32' W 009°13'2 3.2
2018-Jun-13 02:00N 38°34' W 009°15'0 0.5
2018-Jun-13 01:29N 38°34' W 009°15'0 0.8
2018-Jun-13 01:00N 38°34' W 009°15'0 0.7
2018-Jun-13 00:30N 38°35' W 009°15'0 0.8
2018-Jun-13 00:00N 38°35' W 009°15'1 1.0
2018-Jun-12 23:28N 38°35' W 009°16'3 7.2
2018-Jun-12 23:00N 38°35' W 009°20'3 5.0
2018-Jun-12 22:29N 38°35' W 009°17'4 7.8
2018-Jun-12 22:00N 38°32' W 009°14'3 6.3
2018-Jun-12 21:30N 38°29' W 009°14'4 7.9
2018-Jun-12 21:00N 38°25' W 009°14'4 7.9
2018-Jun-12 20:30N 38°25' W 009°09'2 3.6
2018-Jun-12 20:00N 38°26' W 009°07'0 0.0
2018-Jun-12 12:03N 38°26' W 009°07'0 0.9
2018-Jun-12 12:00N 38°26' W 009°07'0 0.3
2018-Jun-12 11:26N 38°26' W 009°07'0 0.0
2018-Jun-12 11:00N 38°26' W 009°07'0 0.0
2018-Jun-12 10:27N 38°26' W 009°07'0 0.0
2018-Jun-12 10:00N 38°26' W 009°07'0 0.6
2018-Jun-12 09:30N 38°26' W 009°06'4 8.8
2018-Jun-12 09:00N 38°25' W 009°12'4 7.2
2018-Jun-12 08:30N 38°28' W 009°14'4 8.9
2018-Jun-12 08:00N 38°32' W 009°14'2 4.4
2018-Jun-12 07:30N 38°34' W 009°14'0 0.5
2018-Jun-12 07:01N 38°34' W 009°14'0 0.4
2018-Jun-12 06:29N 38°35' W 009°15'0 0.1
2018-Jun-12 06:00N 38°35' W 009°15'0 0.2
2018-Jun-12 05:30N 38°35' W 009°15'0 1.0
2018-Jun-12 05:01N 38°35' W 009°15'1 2.0
2018-Jun-12 04:30N 38°34' W 009°14'0 0.1
2018-Jun-12 04:00N 38°34' W 009°14'0 0.1
2018-Jun-12 03:28N 38°35' W 009°14'1 2.4
2018-Jun-12 03:01N 38°35' W 009°16'0 0.5
2018-Jun-12 02:29N 38°35' W 009°16'0 0.6
2018-Jun-12 01:59N 38°35' W 009°16'0 0.8
2018-Jun-12 01:30N 38°35' W 009°16'0 0.5
2018-Jun-12 00:57N 38°35' W 009°15'0 0.5
2018-Jun-12 00:28N 38°35' W 009°15'3 6.6
2018-Jun-12 00:00N 38°33' W 009°13'1 2.9
2018-Jun-11 23:30N 38°31' W 009°12'0 0.4
2018-Jun-11 23:00N 38°32' W 009°12'0 0.0
2018-Jun-11 22:30N 38°32' W 009°12'0 0.1
2018-Jun-11 22:00N 38°32' W 009°12'3 6.2
2018-Jun-11 21:27N 38°28' W 009°14'4 8.3
2018-Jun-11 20:59N 38°25' W 009°13'4 8.6
2018-Jun-11 20:30N 38°26' W 009°08'1 2.8
2018-Jun-11 20:00N 38°26' W 009°07'0 0.0
2018-Jun-11 12:52N 38°26' W 009°07'0 0.4
2018-Jun-11 12:30N 38°26' W 009°07'0 0.0
2018-Jun-11 12:00N 38°26' W 009°07'0 0.0
2018-Jun-11 11:30N 38°26' W 009°07'0 0.0
2018-Jun-11 10:59N 38°26' W 009°07'1 2.2
2018-Jun-11 10:30N 38°26' W 009°08'5 8.9
2018-Jun-11 10:00N 38°25' W 009°13'5 9.4
2018-Jun-11 09:30N 38°28' W 009°17'5 9.4
2018-Jun-11 09:00N 38°32' W 009°20'  
Track history (hours):
 
Tides and Currents Weather Stations Pressure Air Temp Water Temp Dewpoint Dewpoint Depression Visibility Wind Speed Wind Dir Waves Ship Positions

Beatriz Paulo

Last reported at 2018-Jun-21 08:31 UTC. Time now 2018-Jun-21 08:45 UTC.
Position N 38°26' W 009°07'.

Length 22 m.

Type: Fishing. MMSI: 263500236.

Date/timePositionNaut miles runAvg speedWind from/ knotsBaromVisibWave heightAir tempDewpointWater temp
2018-Jun-21 08:31N 38°26' W 009°07'4 9.0
2018-Jun-21 08:00N 38°24' W 009°12'4 7.5
2018-Jun-21 07:30N 38°28' W 009°14'2 3.2
2018-Jun-21 07:00N 38°29' W 009°14'0 0.4
2018-Jun-21 06:30N 38°29' W 009°14'0 0.3
2018-Jun-21 05:57N 38°29' W 009°14'0 0.1
2018-Jun-21 05:30N 38°29' W 009°14'1 1.7
2018-Jun-21 04:59N 38°29' W 009°13'0 0.6
2018-Jun-21 04:30N 38°30' W 009°13'4 6.9
2018-Jun-21 03:59N 38°33' W 009°13'3 7.3
2018-Jun-21 03:31N 38°36' W 009°15'0 0.4
2018-Jun-21 03:00N 38°36' W 009°16'0 0.3
2018-Jun-21 02:29N 38°36' W 009°16'0 0.4
2018-Jun-21 02:00N 38°36' W 009°16'0 0.4
2018-Jun-21 01:30N 38°36' W 009°16'1 2.0
2018-Jun-21 01:00N 38°37' W 009°16'1 1.3
2018-Jun-21 00:30N 38°36' W 009°15'2 3.6
2018-Jun-21 00:00N 38°35' W 009°14'0 0.4
2018-Jun-20 23:30N 38°35' W 009°14'0 0.4
2018-Jun-20 23:00N 38°34' W 009°14'3 5.2
2018-Jun-20 22:30N 38°32' W 009°14'3 6.7
2018-Jun-20 22:00N 38°29' W 009°13'4 8.0
2018-Jun-20 21:29N 38°24' W 009°13'4 8.9
2018-Jun-20 21:00N 38°26' W 009°07'1 1.6
2018-Jun-20 20:30N 38°26' W 009°07'0 0.0
2018-Jun-20 10:23N 38°26' W 009°07'0 0.4
2018-Jun-20 10:00N 38°26' W 009°07'0 0.0
2018-Jun-20 09:30N 38°26' W 009°07'0 0.0
2018-Jun-20 09:00N 38°26' W 009°07'0 0.0
2018-Jun-20 08:30N 38°26' W 009°07'3 6.7
2018-Jun-20 08:00N 38°25' W 009°10'3 6.3
2018-Jun-20 07:28N 38°27' W 009°14'4 8.9
2018-Jun-20 06:59N 38°31' W 009°14'1 3.1
2018-Jun-20 06:30N 38°33' W 009°14'0 0.3
2018-Jun-20 06:00N 38°33' W 009°14'0 0.2
2018-Jun-20 05:30N 38°33' W 009°14'0 0.1
2018-Jun-20 05:00N 38°33' W 009°14'0 0.2
2018-Jun-20 04:29N 38°33' W 009°14'1 1.1
2018-Jun-20 04:00N 38°33' W 009°14'0 0.6
2018-Jun-20 03:30N 38°33' W 009°14'0 0.1
2018-Jun-20 03:00N 38°33' W 009°14'0 0.0
2018-Jun-20 02:30N 38°33' W 009°14'1 2.7
2018-Jun-20 02:00N 38°32' W 009°14'0 0.1
2018-Jun-20 01:29N 38°32' W 009°14'0 0.1
2018-Jun-20 01:00N 38°32' W 009°14'0 0.1
2018-Jun-20 00:30N 38°32' W 009°14'0 0.3
2018-Jun-20 00:00N 38°32' W 009°14'0 0.2
2018-Jun-19 23:30N 38°32' W 009°14'0 0.2
2018-Jun-19 23:00N 38°32' W 009°14'1 2.6
2018-Jun-19 22:30N 38°34' W 009°15'4 8.1
2018-Jun-19 21:58N 38°29' W 009°13'4 8.6
2018-Jun-19 21:29N 38°25' W 009°14'4 7.6
2018-Jun-19 20:57N 38°25' W 009°08'2 3.4
2018-Jun-19 20:29N 38°26' W 009°07'0 0.0
2018-Jun-19 10:30N 38°26' W 009°07'0 0.2
2018-Jun-19 10:00N 38°26' W 009°07'0 0.0
2018-Jun-19 09:30N 38°26' W 009°07'0 0.0
2018-Jun-19 09:00N 38°26' W 009°07'0 0.1
2018-Jun-19 08:25N 38°26' W 009°07'5 7.8
2018-Jun-19 07:49N 38°24' W 009°12'2 6.9
2018-Jun-19 07:29N 38°27' W 009°13'2 4.2
2018-Jun-19 06:58N 38°29' W 009°13'0 0.2
2018-Jun-19 06:28N 38°29' W 009°13'0 0.1
2018-Jun-19 06:00N 38°29' W 009°13'0 0.1
2018-Jun-19 05:26N 38°29' W 009°13'0 0.1
2018-Jun-19 05:00N 38°29' W 009°13'3 4.9
2018-Jun-19 04:30N 38°31' W 009°13'3 6.5
2018-Jun-19 04:00N 38°34' W 009°14'1 2.1
2018-Jun-19 03:31N 38°35' W 009°14'0 0.2
2018-Jun-19 03:00N 38°35' W 009°14'0 0.3
2018-Jun-19 02:28N 38°35' W 009°14'0 0.2
2018-Jun-19 02:00N 38°35' W 009°14'0 0.3
2018-Jun-19 01:30N 38°35' W 009°14'0 0.2
2018-Jun-19 01:00N 38°35' W 009°14'0 0.2
2018-Jun-19 00:30N 38°35' W 009°14'0 0.2
2018-Jun-18 23:59N 38°35' W 009°14'0 0.1
2018-Jun-18 23:29N 38°35' W 009°14'0 0.2
2018-Jun-18 23:00N 38°35' W 009°14'1 2.8
2018-Jun-18 22:31N 38°33' W 009°13'3 5.4
2018-Jun-18 22:00N 38°31' W 009°13'4 8.4
2018-Jun-18 21:30N 38°26' W 009°14'3 6.8
2018-Jun-18 21:00N 38°25' W 009°10'3 5.8
2018-Jun-18 20:30N 38°26' W 009°07'0 0.0
2018-Jun-18 19:57N 38°26' W 009°07'0 0.0
2018-Jun-18 12:38N 38°26' W 009°07'0 1.0
2018-Jun-18 12:29N 38°26' W 009°07'0 0.0
2018-Jun-18 12:00N 38°26' W 009°07'0 0.0
2018-Jun-18 11:29N 38°26' W 009°07'0 0.0
2018-Jun-18 11:00N 38°26' W 009°07'0 0.0
2018-Jun-18 10:30N 38°26' W 009°07'0 0.0
2018-Jun-18 10:00N 38°26' W 009°07'0 0.0
2018-Jun-18 09:31N 38°26' W 009°07'0 0.0
2018-Jun-18 09:00N 38°26' W 009°07'3 7.0
2018-Jun-18 08:31N 38°25' W 009°11'3 5.8
2018-Jun-18 08:00N 38°27' W 009°14'5 9.0
2018-Jun-18 07:30N 38°31' W 009°14'1 2.6
2018-Jun-18 07:00N 38°33' W 009°14'0 0.3
2018-Jun-18 06:30N 38°33' W 009°14'0 0.2
2018-Jun-18 06:00N 38°33' W 009°14'0 0.2
2018-Jun-18 05:30N 38°32' W 009°14'1 3.0
2018-Jun-18 05:01N 38°34' W 009°15'4 8.1
2018-Jun-18 04:30N 38°35' W 009°20'4 8.5
2018-Jun-18 04:00N 38°38' W 009°24'4 7.7
2018-Jun-18 03:30N 38°41' W 009°27'0 0.9
2018-Jun-18 03:01N 38°41' W 009°27'1 2.8
2018-Jun-18 02:31N 38°40' W 009°25'0 0.3
2018-Jun-18 02:00N 38°41' W 009°25'0 0.6
2018-Jun-18 01:30N 38°40' W 009°25'0 0.3
2018-Jun-18 01:00N 38°40' W 009°25'0 0.2
2018-Jun-18 00:31N 38°40' W 009°25'2 3.2
2018-Jun-18 00:00N 38°41' W 009°27'3 5.5
2018-Jun-17 23:30N 38°39' W 009°24'4 8.5
2018-Jun-17 23:00N 38°35' W 009°22'4 7.9
2018-Jun-17 22:30N 38°34' W 009°17'4 8.3
2018-Jun-17 22:01N 38°30' W 009°14'4 8.7
2018-Jun-17 21:30N 38°26' W 009°14'3 6.8
2018-Jun-17 21:00N 38°25' W 009°10'3 5.4
2018-Jun-17 20:31N 38°26' W 009°07'0 0.0
2018-Jun-17 20:00N 38°26' W 009°07'  
2018-Jun-15 11:44N 38°26' W 009°07'0 0.0
2018-Jun-15 11:30N 38°26' W 009°07'1 2.4
2018-Jun-15 11:00N 38°25' W 009°08'4 8.6
2018-Jun-15 10:30N 38°25' W 009°13'4 6.1
2018-Jun-15 09:52N 38°28' W 009°15'0 0.2
2018-Jun-15 09:30N 38°28' W 009°15'0 0.2
2018-Jun-15 09:00N 38°28' W 009°15'2 4.1
2018-Jun-15 08:30N 38°30' W 009°14'3 6.1
2018-Jun-15 07:58N 38°33' W 009°14'3 5.7
2018-Jun-15 07:29N 38°34' W 009°18'0 0.4
2018-Jun-15 07:00N 38°34' W 009°18'0 0.0
2018-Jun-15 06:30N 38°34' W 009°18'1 2.2
2018-Jun-15 05:59N 38°34' W 009°16'3 6.5
2018-Jun-15 05:29N 38°37' W 009°16'3 6.4
2018-Jun-15 05:00N 38°34' W 009°14'0 0.6
2018-Jun-15 04:29N 38°34' W 009°14'1 1.0
2018-Jun-15 03:58N 38°35' W 009°15'0 1.0
2018-Jun-15 03:30N 38°34' W 009°14'1 2.3
2018-Jun-15 03:00N 38°35' W 009°15'0 0.3
2018-Jun-15 02:29N 38°36' W 009°15'0 0.3
2018-Jun-15 02:00N 38°36' W 009°15'0 0.1
2018-Jun-15 01:30N 38°36' W 009°15'0 0.1
2018-Jun-15 00:58N 38°36' W 009°15'0 0.3
2018-Jun-15 00:30N 38°36' W 009°15'0 0.2
2018-Jun-14 23:59N 38°36' W 009°15'0 0.1
2018-Jun-14 23:30N 38°36' W 009°15'0 0.1
2018-Jun-14 23:00N 38°36' W 009°15'1 2.9
2018-Jun-14 22:29N 38°36' W 009°17'2 5.0
2018-Jun-14 22:00N 38°35' W 009°20'1 2.1
2018-Jun-14 21:30N 38°34' W 009°20'1 2.0
2018-Jun-14 21:00N 38°34' W 009°19'4 7.9
2018-Jun-14 20:28N 38°30' W 009°16'4 8.3
2018-Jun-14 20:00N 38°27' W 009°15'4 7.3
2018-Jun-14 19:30N 38°25' W 009°11'4 7.5
2018-Jun-14 19:00N 38°26' W 009°07'0 0.0
2018-Jun-14 10:36N 38°26' W 009°07'0 2.0
2018-Jun-14 10:30N 38°26' W 009°07'4 8.8
2018-Jun-14 10:00N 38°24' W 009°02'4 8.8
2018-Jun-14 09:30N 38°21' W 008°57'5 8.9
2018-Jun-14 08:58N 38°18' W 008°53'4 8.8
2018-Jun-14 08:30N 38°16' W 008°49'1 2.0
2018-Jun-14 08:00N 38°17' W 008°49'2 4.9
2018-Jun-14 07:30N 38°18' W 008°51'3 6.3
2018-Jun-14 06:58N 38°22' W 008°52'1 2.9
2018-Jun-14 06:28N 38°23' W 008°53'2 4.1
2018-Jun-14 06:00N 38°24' W 008°55'1 1.3
2018-Jun-14 05:30N 38°25' W 008°55'0 0.5
2018-Jun-14 04:57N 38°25' W 008°55'0 0.2
2018-Jun-14 04:29N 38°25' W 008°55'0 0.2
2018-Jun-14 03:59N 38°25' W 008°55'1 2.0
2018-Jun-14 03:29N 38°24' W 008°54'2 3.4
2018-Jun-14 03:00N 38°25' W 008°56'4 8.8
2018-Jun-14 02:30N 38°26' W 009°01'4 8.7
2018-Jun-14 02:00N 38°25' W 009°07'4 8.8
2018-Jun-14 01:30N 38°24' W 009°12'5 7.9
2018-Jun-14 00:55N 38°29' W 009°13'1 1.4
2018-Jun-14 00:30N 38°29' W 009°13'0 0.1
2018-Jun-13 23:58N 38°29' W 009°13'0 0.2
2018-Jun-13 23:29N 38°30' W 009°13'3 5.5
2018-Jun-13 23:00N 38°32' W 009°13'4 8.7
2018-Jun-13 22:30N 38°36' W 009°16'3 5.6
2018-Jun-13 21:59N 38°34' W 009°19'2 4.2
2018-Jun-13 21:30N 38°35' W 009°21'2 4.0
2018-Jun-13 21:00N 38°34' W 009°19'4 7.3
2018-Jun-13 20:29N 38°34' W 009°14'4 8.1
2018-Jun-13 20:00N 38°30' W 009°13'1 2.9
2018-Jun-13 19:30N 38°29' W 009°13'4 8.0
2018-Jun-13 19:00N 38°25' W 009°14'4 8.1
2018-Jun-13 18:30N 38°25' W 009°08'2 3.3
2018-Jun-13 17:59N 38°26' W 009°07'0 0.0
2018-Jun-13 11:27N 38°26' W 009°07'0 0.1
2018-Jun-13 11:00N 38°26' W 009°07'0 0.0
2018-Jun-13 10:30N 38°26' W 009°07'0 0.0
2018-Jun-13 10:00N 38°26' W 009°07'1 1.3
2018-Jun-13 09:30N 38°26' W 009°07'4 8.9
2018-Jun-13 09:00N 38°25' W 009°13'4 8.3
2018-Jun-13 08:30N 38°29' W 009°14'3 6.6
2018-Jun-13 08:00N 38°32' W 009°14'0 0.7
2018-Jun-13 07:29N 38°32' W 009°14'0 0.5
2018-Jun-13 07:00N 38°32' W 009°14'0 0.2
2018-Jun-13 06:30N 38°33' W 009°14'1 1.7
2018-Jun-13 05:58N 38°33' W 009°14'1 2.0
2018-Jun-13 05:30N 38°34' W 009°14'0 0.4
2018-Jun-13 04:58N 38°34' W 009°14'0 0.3
2018-Jun-13 04:30N 38°34' W 009°14'0 0.3
2018-Jun-13 03:59N 38°35' W 009°14'0 0.8
2018-Jun-13 03:30N 38°34' W 009°14'2 4.1
2018-Jun-13 03:00N 38°32' W 009°14'0 0.5
2018-Jun-13 02:30N 38°32' W 009°13'2 3.2
2018-Jun-13 02:00N 38°34' W 009°15'0 0.5
2018-Jun-13 01:29N 38°34' W 009°15'0 0.8
2018-Jun-13 01:00N 38°34' W 009°15'0 0.7
2018-Jun-13 00:30N 38°35' W 009°15'0 0.8
2018-Jun-13 00:00N 38°35' W 009°15'1 1.0
2018-Jun-12 23:28N 38°35' W 009°16'3 7.2
2018-Jun-12 23:00N 38°35' W 009°20'3 5.0
2018-Jun-12 22:29N 38°35' W 009°17'4 7.8
2018-Jun-12 22:00N 38°32' W 009°14'3 6.3
2018-Jun-12 21:30N 38°29' W 009°14'4 7.9
2018-Jun-12 21:00N 38°25' W 009°14'4 7.9
2018-Jun-12 20:30N 38°25' W 009°09'2 3.6
2018-Jun-12 20:00N 38°26' W 009°07'0 0.0
2018-Jun-12 12:03N 38°26' W 009°07'0 0.9
2018-Jun-12 12:00N 38°26' W 009°07'0 0.3
2018-Jun-12 11:26N 38°26' W 009°07'0 0.0
2018-Jun-12 11:00N 38°26' W 009°07'0 0.0
2018-Jun-12 10:27N 38°26' W 009°07'0 0.0
2018-Jun-12 10:00N 38°26' W 009°07'0 0.6
2018-Jun-12 09:30N 38°26' W 009°06'4 8.8
2018-Jun-12 09:00N 38°25' W 009°12'4 7.2
2018-Jun-12 08:30N 38°28' W 009°14'4 8.9
2018-Jun-12 08:00N 38°32' W 009°14'2 4.4
2018-Jun-12 07:30N 38°34' W 009°14'0 0.5
2018-Jun-12 07:01N 38°34' W 009°14'0 0.4
2018-Jun-12 06:29N 38°35' W 009°15'0 0.1
2018-Jun-12 06:00N 38°35' W 009°15'0 0.2
2018-Jun-12 05:30N 38°35' W 009°15'0 1.0
2018-Jun-12 05:01N 38°35' W 009°15'1 2.0
2018-Jun-12 04:30N 38°34' W 009°14'0 0.1
2018-Jun-12 04:00N 38°34' W 009°14'0 0.1
2018-Jun-12 03:28N 38°35' W 009°14'1 2.4
2018-Jun-12 03:01N 38°35' W 009°16'0 0.5
2018-Jun-12 02:29N 38°35' W 009°16'0 0.6
2018-Jun-12 01:59N 38°35' W 009°16'0 0.8
2018-Jun-12 01:30N 38°35' W 009°16'0 0.5
2018-Jun-12 00:57N 38°35' W 009°15'0 0.5
2018-Jun-12 00:28N 38°35' W 009°15'3 6.6
2018-Jun-12 00:00N 38°33' W 009°13'1 2.9
2018-Jun-11 23:30N 38°31' W 009°12'0 0.4
2018-Jun-11 23:00N 38°32' W 009°12'0 0.0
2018-Jun-11 22:30N 38°32' W 009°12'0 0.1
2018-Jun-11 22:00N 38°32' W 009°12'3 6.2
2018-Jun-11 21:27N 38°28' W 009°14'4 8.3
2018-Jun-11 20:59N 38°25' W 009°13'4 8.6
2018-Jun-11 20:30N 38°26' W 009°08'1 2.8
2018-Jun-11 20:00N 38°26' W 009°07'0 0.0
2018-Jun-11 12:52N 38°26' W 009°07'0 0.4
2018-Jun-11 12:30N 38°26' W 009°07'0 0.0
2018-Jun-11 12:00N 38°26' W 009°07'0 0.0
2018-Jun-11 11:30N 38°26' W 009°07'0 0.0
2018-Jun-11 10:59N 38°26' W 009°07'1 2.2
2018-Jun-11 10:30N 38°26' W 009°08'5 8.9
2018-Jun-11 10:00N 38°25' W 009°13'5 9.4
2018-Jun-11 09:30N 38°28' W 009°17'5 9.4
2018-Jun-11 09:00N 38°32' W 009°20'  

Dump ship's entire track history